sensor_id;sensor_type;location;lat;lon;timestamp;P1;durP1;ratioP1;P2;durP2;ratioP2
46322;SDS011;32044;52.386;13.278;2024-02-28T00:01:18;107.43;;;36.47;;
46322;SDS011;32044;52.386;13.278;2024-02-28T00:03:47;131.00;;;38.55;;
46322;SDS011;32044;52.386;13.278;2024-02-28T00:06:15;117.22;;;35.97;;
46322;SDS011;32044;52.386;13.278;2024-02-28T00:08:43;111.88;;;36.33;;
46322;SDS011;32044;52.386;13.278;2024-02-28T00:11:11;113.25;;;34.92;;
46322;SDS011;32044;52.386;13.278;2024-02-28T00:13:38;92.97;;;31.80;;
46322;SDS011;32044;52.386;13.278;2024-02-28T00:16:06;104.53;;;32.03;;
46322;SDS011;32044;52.386;13.278;2024-02-28T00:18:33;92.38;;;31.60;;
46322;SDS011;32044;52.386;13.278;2024-02-28T00:21:03;97.38;;;31.50;;
46322;SDS011;32044;52.386;13.278;2024-02-28T00:23:31;94.60;;;31.27;;
46322;SDS011;32044;52.386;13.278;2024-02-28T00:26:00;104.43;;;32.83;;
46322;SDS011;32044;52.386;13.278;2024-02-28T00:28:28;113.10;;;32.85;;
46322;SDS011;32044;52.386;13.278;2024-02-28T00:30:55;96.88;;;32.17;;
46322;SDS011;32044;52.386;13.278;2024-02-28T00:33:23;92.88;;;30.63;;
46322;SDS011;32044;52.386;13.278;2024-02-28T00:35:50;103.05;;;31.85;;
46322;SDS011;32044;52.386;13.278;2024-02-28T00:38:21;95.38;;;30.90;;
46322;SDS011;32044;52.386;13.278;2024-02-28T00:40:48;107.15;;;32.30;;
46322;SDS011;32044;52.386;13.278;2024-02-28T00:43:16;132.35;;;34.65;;
46322;SDS011;32044;52.386;13.278;2024-02-28T00:45:43;146.40;;;35.05;;
46322;SDS011;32044;52.386;13.278;2024-02-28T00:48:11;110.75;;;35.38;;
46322;SDS011;32044;52.386;13.278;2024-02-28T00:50:39;137.00;;;36.38;;
46322;SDS011;32044;52.386;13.278;2024-02-28T00:53:06;170.85;;;38.75;;
46322;SDS011;32044;52.386;13.278;2024-02-28T00:55:35;109.25;;;35.80;;
46322;SDS011;32044;52.386;13.278;2024-02-28T00:58:03;178.48;;;40.45;;
46322;SDS011;32044;52.386;13.278;2024-02-28T01:00:30;153.93;;;38.35;;
46322;SDS011;32044;52.386;13.278;2024-02-28T01:02:58;157.65;;;38.03;;
46322;SDS011;32044;52.386;13.278;2024-02-28T01:05:27;141.50;;;37.50;;
46322;SDS011;32044;52.386;13.278;2024-02-28T01:07:55;161.57;;;39.47;;
46322;SDS011;32044;52.386;13.278;2024-02-28T01:10:22;186.18;;;41.15;;
46322;SDS011;32044;52.386;13.278;2024-02-28T01:12:51;175.10;;;39.75;;
46322;SDS011;32044;52.386;13.278;2024-02-28T01:15:19;193.50;;;40.65;;
46322;SDS011;32044;52.386;13.278;2024-02-28T01:17:46;169.90;;;41.03;;
46322;SDS011;32044;52.386;13.278;2024-02-28T01:20:14;162.02;;;40.10;;
46322;SDS011;32044;52.386;13.278;2024-02-28T01:22:42;204.77;;;44.60;;
46322;SDS011;32044;52.386;13.278;2024-02-28T01:25:10;154.10;;;38.53;;
46322;SDS011;32044;52.386;13.278;2024-02-28T01:27:37;126.82;;;39.42;;
46322;SDS011;32044;52.386;13.278;2024-02-28T01:30:07;129.18;;;36.95;;
46322;SDS011;32044;52.386;13.278;2024-02-28T01:32:35;169.30;;;40.80;;
46322;SDS011;32044;52.386;13.278;2024-02-28T01:35:03;227.35;;;43.00;;
46322;SDS011;32044;52.386;13.278;2024-02-28T01:37:30;165.57;;;38.92;;
46322;SDS011;32044;52.386;13.278;2024-02-28T01:39:58;174.73;;;40.67;;
46322;SDS011;32044;52.386;13.278;2024-02-28T01:42:25;201.95;;;42.20;;
46322;SDS011;32044;52.386;13.278;2024-02-28T01:44:53;176.02;;;39.92;;
46322;SDS011;32044;52.386;13.278;2024-02-28T01:47:22;171.60;;;39.30;;
46322;SDS011;32044;52.386;13.278;2024-02-28T01:49:50;203.90;;;43.47;;
46322;SDS011;32044;52.386;13.278;2024-02-28T01:52:19;187.02;;;41.10;;
46322;SDS011;32044;52.386;13.278;2024-02-28T01:54:47;130.55;;;37.80;;
46322;SDS011;32044;52.386;13.278;2024-02-28T01:57:15;177.70;;;40.83;;
46322;SDS011;32044;52.386;13.278;2024-02-28T01:59:43;177.52;;;40.45;;
46322;SDS011;32044;52.386;13.278;2024-02-28T02:02:11;211.95;;;43.60;;
46322;SDS011;32044;52.386;13.278;2024-02-28T02:04:40;165.38;;;38.75;;
46322;SDS011;32044;52.386;13.278;2024-02-28T02:07:07;171.52;;;39.38;;
46322;SDS011;32044;52.386;13.278;2024-02-28T02:09:35;217.20;;;42.17;;
46322;SDS011;32044;52.386;13.278;2024-02-28T02:12:02;188.63;;;39.47;;
46322;SDS011;32044;52.386;13.278;2024-02-28T02:14:30;203.10;;;43.15;;
46322;SDS011;32044;52.386;13.278;2024-02-28T02:16:58;197.00;;;40.83;;
46322;SDS011;32044;52.386;13.278;2024-02-28T02:19:25;166.20;;;39.55;;
46322;SDS011;32044;52.386;13.278;2024-02-28T02:21:57;175.38;;;39.47;;
46322;SDS011;32044;52.386;13.278;2024-02-28T02:24:27;206.13;;;42.97;;
46322;SDS011;32044;52.386;13.278;2024-02-28T02:26:55;174.10;;;40.30;;
46322;SDS011;32044;52.386;13.278;2024-02-28T02:29:23;171.32;;;38.55;;
46322;SDS011;32044;52.386;13.278;2024-02-28T02:31:51;201.80;;;40.20;;
46322;SDS011;32044;52.386;13.278;2024-02-28T02:34:18;235.43;;;43.35;;
46322;SDS011;32044;52.386;13.278;2024-02-28T02:36:45;183.65;;;41.58;;
46322;SDS011;32044;52.386;13.278;2024-02-28T02:39:13;207.25;;;42.85;;
46322;SDS011;32044;52.386;13.278;2024-02-28T02:41:42;179.30;;;39.65;;
46322;SDS011;32044;52.386;13.278;2024-02-28T02:44:10;134.57;;;36.28;;
46322;SDS011;32044;52.386;13.278;2024-02-28T02:46:37;190.00;;;40.45;;
46322;SDS011;32044;52.386;13.278;2024-02-28T02:49:05;256.58;;;43.15;;
46322;SDS011;32044;52.386;13.278;2024-02-28T02:51:33;202.38;;;40.97;;
46322;SDS011;32044;52.386;13.278;2024-02-28T02:54:00;198.68;;;40.80;;
46322;SDS011;32044;52.386;13.278;2024-02-28T02:56:28;223.55;;;40.65;;
46322;SDS011;32044;52.386;13.278;2024-02-28T02:58:57;208.43;;;39.50;;
46322;SDS011;32044;52.386;13.278;2024-02-28T03:01:24;187.35;;;38.80;;
46322;SDS011;32044;52.386;13.278;2024-02-28T03:03:51;133.77;;;33.08;;
46322;SDS011;32044;52.386;13.278;2024-02-28T03:06:19;185.57;;;36.85;;
46322;SDS011;32044;52.386;13.278;2024-02-28T03:08:50;136.55;;;34.60;;
46322;SDS011;32044;52.386;13.278;2024-02-28T03:11:18;169.13;;;34.72;;
46322;SDS011;32044;52.386;13.278;2024-02-28T03:13:45;142.50;;;32.25;;
46322;SDS011;32044;52.386;13.278;2024-02-28T03:16:14;141.13;;;31.05;;
46322;SDS011;32044;52.386;13.278;2024-02-28T03:18:42;116.03;;;29.67;;
46322;SDS011;32044;52.386;13.278;2024-02-28T03:21:09;121.53;;;28.20;;
46322;SDS011;32044;52.386;13.278;2024-02-28T03:23:37;133.00;;;30.92;;
46322;SDS011;32044;52.386;13.278;2024-02-28T03:26:04;114.55;;;29.42;;
46322;SDS011;32044;52.386;13.278;2024-02-28T03:28:32;141.02;;;33.58;;
46322;SDS011;32044;52.386;13.278;2024-02-28T03:31:00;135.48;;;32.97;;
46322;SDS011;32044;52.386;13.278;2024-02-28T03:33:28;127.72;;;31.45;;
46322;SDS011;32044;52.386;13.278;2024-02-28T03:35:59;106.97;;;28.25;;
46322;SDS011;32044;52.386;13.278;2024-02-28T03:38:26;138.40;;;30.58;;
46322;SDS011;32044;52.386;13.278;2024-02-28T03:40:54;125.78;;;29.75;;
46322;SDS011;32044;52.386;13.278;2024-02-28T03:43:21;119.78;;;27.60;;
46322;SDS011;32044;52.386;13.278;2024-02-28T03:45:49;102.30;;;27.55;;
46322;SDS011;32044;52.386;13.278;2024-02-28T03:48:16;104.47;;;27.52;;
46322;SDS011;32044;52.386;13.278;2024-02-28T03:50:45;109.40;;;27.58;;
46322;SDS011;32044;52.386;13.278;2024-02-28T03:53:13;120.97;;;28.77;;
46322;SDS011;32044;52.386;13.278;2024-02-28T03:55:41;104.32;;;26.08;;
46322;SDS011;32044;52.386;13.278;2024-02-28T03:58:10;104.55;;;27.20;;
46322;SDS011;32044;52.386;13.278;2024-02-28T04:00:37;111.97;;;27.17;;
46322;SDS011;32044;52.386;13.278;2024-02-28T04:03:05;102.82;;;26.42;;
46322;SDS011;32044;52.386;13.278;2024-02-28T04:05:33;101.90;;;26.55;;
46322;SDS011;32044;52.386;13.278;2024-02-28T04:08:01;108.68;;;27.00;;
46322;SDS011;32044;52.386;13.278;2024-02-28T04:10:29;90.28;;;25.20;;
46322;SDS011;32044;52.386;13.278;2024-02-28T04:12:57;91.60;;;24.67;;
46322;SDS011;32044;52.386;13.278;2024-02-28T04:15:25;97.93;;;25.85;;
46322;SDS011;32044;52.386;13.278;2024-02-28T04:17:53;94.95;;;25.60;;
46322;SDS011;32044;52.386;13.278;2024-02-28T04:20:21;94.93;;;26.35;;
46322;SDS011;32044;52.386;13.278;2024-02-28T04:22:49;91.68;;;25.60;;
46322;SDS011;32044;52.386;13.278;2024-02-28T04:25:18;74.97;;;23.50;;
46322;SDS011;32044;52.386;13.278;2024-02-28T04:27:45;76.20;;;24.20;;
46322;SDS011;32044;52.386;13.278;2024-02-28T04:30:13;89.63;;;23.60;;
46322;SDS011;32044;52.386;13.278;2024-02-28T04:32:41;85.97;;;24.48;;
46322;SDS011;32044;52.386;13.278;2024-02-28T04:35:08;97.78;;;25.65;;
46322;SDS011;32044;52.386;13.278;2024-02-28T04:37:36;66.70;;;22.10;;
46322;SDS011;32044;52.386;13.278;2024-02-28T04:40:04;67.75;;;22.10;;
46322;SDS011;32044;52.386;13.278;2024-02-28T04:42:34;76.65;;;24.38;;
46322;SDS011;32044;52.386;13.278;2024-02-28T04:45:02;97.78;;;25.50;;
46322;SDS011;32044;52.386;13.278;2024-02-28T04:47:30;86.57;;;25.08;;
46322;SDS011;32044;52.386;13.278;2024-02-28T04:50:09;104.32;;;26.88;;
46322;SDS011;32044;52.386;13.278;2024-02-28T04:52:37;92.45;;;25.27;;
46322;SDS011;32044;52.386;13.278;2024-02-28T04:55:05;99.50;;;26.23;;
46322;SDS011;32044;52.386;13.278;2024-02-28T04:57:32;70.50;;;22.05;;
46322;SDS011;32044;52.386;13.278;2024-02-28T05:00:02;82.95;;;25.23;;
46322;SDS011;32044;52.386;13.278;2024-02-28T05:02:30;98.10;;;26.42;;
46322;SDS011;32044;52.386;13.278;2024-02-28T05:04:57;91.57;;;26.30;;
46322;SDS011;32044;52.386;13.278;2024-02-28T05:07:25;72.40;;;23.23;;
46322;SDS011;32044;52.386;13.278;2024-02-28T05:09:52;85.65;;;23.50;;
46322;SDS011;32044;52.386;13.278;2024-02-28T05:12:20;62.22;;;20.50;;
46322;SDS011;32044;52.386;13.278;2024-02-28T05:14:47;74.57;;;21.90;;
46322;SDS011;32044;52.386;13.278;2024-02-28T05:17:21;55.80;;;19.55;;
46322;SDS011;32044;52.386;13.278;2024-02-28T05:19:48;56.75;;;19.15;;
46322;SDS011;32044;52.386;13.278;2024-02-28T05:22:16;57.42;;;19.48;;
46322;SDS011;32044;52.386;13.278;2024-02-28T05:24:45;71.53;;;22.08;;
46322;SDS011;32044;52.386;13.278;2024-02-28T05:27:13;52.78;;;18.33;;
46322;SDS011;32044;52.386;13.278;2024-02-28T05:29:40;58.45;;;19.05;;
46322;SDS011;32044;52.386;13.278;2024-02-28T05:32:09;54.25;;;17.95;;
46322;SDS011;32044;52.386;13.278;2024-02-28T05:34:38;50.75;;;17.67;;
46322;SDS011;32044;52.386;13.278;2024-02-28T05:37:05;54.08;;;19.40;;
46322;SDS011;32044;52.386;13.278;2024-02-28T05:39:33;69.45;;;19.15;;
46322;SDS011;32044;52.386;13.278;2024-02-28T05:42:00;51.85;;;17.27;;
46322;SDS011;32044;52.386;13.278;2024-02-28T05:44:28;43.15;;;17.13;;
46322;SDS011;32044;52.386;13.278;2024-02-28T05:46:56;58.33;;;17.77;;
46322;SDS011;32044;52.386;13.278;2024-02-28T05:49:23;52.33;;;18.02;;
46322;SDS011;32044;52.386;13.278;2024-02-28T05:51:52;54.08;;;18.83;;
46322;SDS011;32044;52.386;13.278;2024-02-28T05:54:20;51.03;;;18.40;;
46322;SDS011;32044;52.386;13.278;2024-02-28T05:56:48;53.45;;;18.25;;
46322;SDS011;32044;52.386;13.278;2024-02-28T05:59:16;58.15;;;19.20;;
46322;SDS011;32044;52.386;13.278;2024-02-28T06:01:43;44.50;;;16.60;;
46322;SDS011;32044;52.386;13.278;2024-02-28T06:04:11;40.58;;;16.30;;
46322;SDS011;32044;52.386;13.278;2024-02-28T06:06:40;45.97;;;17.55;;
46322;SDS011;32044;52.386;13.278;2024-02-28T06:09:08;43.72;;;16.38;;
46322;SDS011;32044;52.386;13.278;2024-02-28T06:11:36;44.08;;;17.38;;
46322;SDS011;32044;52.386;13.278;2024-02-28T06:14:04;41.28;;;16.58;;
46322;SDS011;32044;52.386;13.278;2024-02-28T06:16:31;39.47;;;15.27;;
46322;SDS011;32044;52.386;13.278;2024-02-28T06:18:59;38.92;;;15.18;;
46322;SDS011;32044;52.386;13.278;2024-02-28T06:21:31;30.75;;;14.90;;
46322;SDS011;32044;52.386;13.278;2024-02-28T06:23:58;36.92;;;15.02;;
46322;SDS011;32044;52.386;13.278;2024-02-28T06:26:27;35.67;;;15.50;;
46322;SDS011;32044;52.386;13.278;2024-02-28T06:28:55;30.27;;;14.10;;
46322;SDS011;32044;52.386;13.278;2024-02-28T06:31:27;31.17;;;14.32;;
46322;SDS011;32044;52.386;13.278;2024-02-28T06:33:57;31.35;;;15.93;;
46322;SDS011;32044;52.386;13.278;2024-02-28T06:36:25;30.58;;;14.70;;
46322;SDS011;32044;52.386;13.278;2024-02-28T06:38:52;33.30;;;14.82;;
46322;SDS011;32044;52.386;13.278;2024-02-28T06:41:20;29.42;;;14.70;;
46322;SDS011;32044;52.386;13.278;2024-02-28T06:43:49;28.35;;;14.38;;
46322;SDS011;32044;52.386;13.278;2024-02-28T06:46:16;29.90;;;14.57;;
46322;SDS011;32044;52.386;13.278;2024-02-28T06:48:44;29.17;;;14.10;;
46322;SDS011;32044;52.386;13.278;2024-02-28T06:51:11;30.63;;;15.95;;
46322;SDS011;32044;52.386;13.278;2024-02-28T06:53:43;34.15;;;15.23;;
46322;SDS011;32044;52.386;13.278;2024-02-28T06:56:10;30.52;;;14.43;;
46322;SDS011;32044;52.386;13.278;2024-02-28T06:58:38;21.60;;;12.10;;
46322;SDS011;32044;52.386;13.278;2024-02-28T07:01:07;22.92;;;11.60;;
46322;SDS011;32044;52.386;13.278;2024-02-28T07:03:34;20.38;;;10.75;;
46322;SDS011;32044;52.386;13.278;2024-02-28T07:06:02;20.75;;;11.35;;
46322;SDS011;32044;52.386;13.278;2024-02-28T07:08:31;18.30;;;9.95;;
46322;SDS011;32044;52.386;13.278;2024-02-28T07:10:59;20.60;;;11.50;;
46322;SDS011;32044;52.386;13.278;2024-02-28T07:13:26;22.45;;;11.18;;
46322;SDS011;32044;52.386;13.278;2024-02-28T07:15:54;18.48;;;10.48;;
46322;SDS011;32044;52.386;13.278;2024-02-28T07:18:25;18.52;;;10.18;;
46322;SDS011;32044;52.386;13.278;2024-02-28T07:20:54;21.63;;;11.10;;
46322;SDS011;32044;52.386;13.278;2024-02-28T07:23:22;21.10;;;10.70;;
46322;SDS011;32044;52.386;13.278;2024-02-28T07:25:49;23.20;;;11.73;;
46322;SDS011;32044;52.386;13.278;2024-02-28T07:28:17;19.92;;;11.80;;
46322;SDS011;32044;52.386;13.278;2024-02-28T07:30:44;21.00;;;11.90;;
46322;SDS011;32044;52.386;13.278;2024-02-28T07:33:14;22.02;;;12.15;;
46322;SDS011;32044;52.386;13.278;2024-02-28T07:35:47;24.52;;;13.70;;
46322;SDS011;32044;52.386;13.278;2024-02-28T07:38:16;28.20;;;13.75;;
46322;SDS011;32044;52.386;13.278;2024-02-28T07:40:47;28.15;;;14.98;;
46322;SDS011;32044;52.386;13.278;2024-02-28T07:43:15;28.85;;;15.25;;
46322;SDS011;32044;52.386;13.278;2024-02-28T07:45:42;24.90;;;13.02;;
46322;SDS011;32044;52.386;13.278;2024-02-28T07:48:10;24.50;;;13.63;;
46322;SDS011;32044;52.386;13.278;2024-02-28T07:50:38;26.35;;;12.18;;
46322;SDS011;32044;52.386;13.278;2024-02-28T07:53:09;22.77;;;12.43;;
46322;SDS011;32044;52.386;13.278;2024-02-28T07:55:37;23.45;;;12.82;;
46322;SDS011;32044;52.386;13.278;2024-02-28T07:58:05;28.05;;;13.88;;
46322;SDS011;32044;52.386;13.278;2024-02-28T08:00:32;28.88;;;15.27;;
46322;SDS011;32044;52.386;13.278;2024-02-28T08:03:02;27.88;;;14.50;;
46322;SDS011;32044;52.386;13.278;2024-02-28T08:05:30;21.38;;;12.93;;
46322;SDS011;32044;52.386;13.278;2024-02-28T08:07:59;27.63;;;13.63;;
46322;SDS011;32044;52.386;13.278;2024-02-28T08:10:28;27.45;;;13.30;;
46322;SDS011;32044;52.386;13.278;2024-02-28T08:12:56;23.05;;;12.13;;
46322;SDS011;32044;52.386;13.278;2024-02-28T08:15:24;22.05;;;11.55;;
46322;SDS011;32044;52.386;13.278;2024-02-28T08:17:51;19.80;;;11.40;;
46322;SDS011;32044;52.386;13.278;2024-02-28T08:20:19;19.48;;;10.75;;
46322;SDS011;32044;52.386;13.278;2024-02-28T08:22:47;23.40;;;11.93;;
46322;SDS011;32044;52.386;13.278;2024-02-28T08:25:15;19.05;;;10.25;;
46322;SDS011;32044;52.386;13.278;2024-02-28T08:27:44;22.67;;;10.88;;
46322;SDS011;32044;52.386;13.278;2024-02-28T08:30:11;21.15;;;12.85;;
46322;SDS011;32044;52.386;13.278;2024-02-28T08:32:40;25.38;;;14.20;;
46322;SDS011;32044;52.386;13.278;2024-02-28T08:35:08;26.08;;;14.75;;
46322;SDS011;32044;52.386;13.278;2024-02-28T08:37:38;31.02;;;15.95;;
46322;SDS011;32044;52.386;13.278;2024-02-28T08:40:06;25.90;;;14.30;;
46322;SDS011;32044;52.386;13.278;2024-02-28T08:42:35;31.58;;;16.13;;
46322;SDS011;32044;52.386;13.278;2024-02-28T08:45:04;32.22;;;16.20;;
46322;SDS011;32044;52.386;13.278;2024-02-28T08:47:32;30.55;;;14.82;;
46322;SDS011;32044;52.386;13.278;2024-02-28T08:50:00;30.27;;;14.73;;
46322;SDS011;32044;52.386;13.278;2024-02-28T08:52:27;32.35;;;15.30;;
46322;SDS011;32044;52.386;13.278;2024-02-28T08:54:55;31.77;;;14.98;;
46322;SDS011;32044;52.386;13.278;2024-02-28T08:57:23;32.97;;;15.73;;
46322;SDS011;32044;52.386;13.278;2024-02-28T08:59:51;32.33;;;16.48;;
46322;SDS011;32044;52.386;13.278;2024-02-28T09:02:20;30.15;;;15.85;;
46322;SDS011;32044;52.386;13.278;2024-02-28T09:04:48;30.33;;;15.68;;
46322;SDS011;32044;52.386;13.278;2024-02-28T09:07:18;28.65;;;15.40;;
46322;SDS011;32044;52.386;13.278;2024-02-28T09:09:46;28.58;;;14.55;;
46322;SDS011;32044;52.386;13.278;2024-02-28T09:12:13;27.58;;;15.35;;
46322;SDS011;32044;52.386;13.278;2024-02-28T09:14:40;30.85;;;16.00;;
46322;SDS011;32044;52.386;13.278;2024-02-28T09:17:08;37.65;;;17.63;;
46322;SDS011;32044;52.386;13.278;2024-02-28T09:19:37;33.72;;;17.65;;
46322;SDS011;32044;52.386;13.278;2024-02-28T09:22:04;32.95;;;18.75;;
46322;SDS011;32044;52.386;13.278;2024-02-28T09:24:32;34.97;;;17.83;;
46322;SDS011;32044;52.386;13.278;2024-02-28T09:27:00;39.65;;;20.33;;
46322;SDS011;32044;52.386;13.278;2024-02-28T09:29:28;34.58;;;18.35;;
46322;SDS011;32044;52.386;13.278;2024-02-28T09:31:55;34.60;;;17.55;;
46322;SDS011;32044;52.386;13.278;2024-02-28T09:34:23;33.92;;;17.65;;
46322;SDS011;32044;52.386;13.278;2024-02-28T09:36:51;33.63;;;18.02;;
46322;SDS011;32044;52.386;13.278;2024-02-28T09:39:19;32.42;;;17.63;;
46322;SDS011;32044;52.386;13.278;2024-02-28T09:41:48;38.45;;;18.95;;
46322;SDS011;32044;52.386;13.278;2024-02-28T09:44:16;38.20;;;18.50;;
46322;SDS011;32044;52.386;13.278;2024-02-28T09:46:44;33.15;;;18.80;;
46322;SDS011;32044;52.386;13.278;2024-02-28T09:49:12;35.28;;;18.90;;
46322;SDS011;32044;52.386;13.278;2024-02-28T09:51:40;33.38;;;19.08;;
46322;SDS011;32044;52.386;13.278;2024-02-28T09:54:09;37.95;;;20.70;;
46322;SDS011;32044;52.386;13.278;2024-02-28T09:56:37;39.10;;;20.95;;
46322;SDS011;32044;52.386;13.278;2024-02-28T09:59:04;32.53;;;19.65;;
46322;SDS011;32044;52.386;13.278;2024-02-28T10:01:32;32.08;;;18.05;;
46322;SDS011;32044;52.386;13.278;2024-02-28T10:04:03;36.60;;;17.98;;
46322;SDS011;32044;52.386;13.278;2024-02-28T10:06:30;34.15;;;18.90;;
46322;SDS011;32044;52.386;13.278;2024-02-28T10:08:58;30.65;;;17.77;;
46322;SDS011;32044;52.386;13.278;2024-02-28T10:11:27;30.42;;;17.88;;
46322;SDS011;32044;52.386;13.278;2024-02-28T10:13:54;35.42;;;19.27;;
46322;SDS011;32044;52.386;13.278;2024-02-28T10:16:22;32.40;;;17.98;;
46322;SDS011;32044;52.386;13.278;2024-02-28T10:18:51;32.58;;;17.98;;
46322;SDS011;32044;52.386;13.278;2024-02-28T10:21:18;30.50;;;17.45;;
46322;SDS011;32044;52.386;13.278;2024-02-28T10:23:47;29.92;;;16.67;;
46322;SDS011;32044;52.386;13.278;2024-02-28T10:26:15;29.92;;;17.15;;
46322;SDS011;32044;52.386;13.278;2024-02-28T10:28:43;29.70;;;18.02;;
46322;SDS011;32044;52.386;13.278;2024-02-28T10:31:11;28.77;;;17.17;;
46322;SDS011;32044;52.386;13.278;2024-02-28T10:33:41;31.90;;;17.15;;
46322;SDS011;32044;52.386;13.278;2024-02-28T10:36:09;30.83;;;17.35;;
46322;SDS011;32044;52.386;13.278;2024-02-28T10:38:38;34.95;;;18.73;;
46322;SDS011;32044;52.386;13.278;2024-02-28T10:41:05;27.15;;;16.48;;
46322;SDS011;32044;52.386;13.278;2024-02-28T10:43:38;28.50;;;16.60;;
46322;SDS011;32044;52.386;13.278;2024-02-28T10:46:07;29.58;;;17.33;;
46322;SDS011;32044;52.386;13.278;2024-02-28T10:48:55;27.65;;;15.93;;
46322;SDS011;32044;52.386;13.278;2024-02-28T10:51:23;30.55;;;17.25;;
46322;SDS011;32044;52.386;13.278;2024-02-28T10:53:56;26.83;;;15.30;;
46322;SDS011;32044;52.386;13.278;2024-02-28T10:56:29;29.05;;;16.33;;
46322;SDS011;32044;52.386;13.278;2024-02-28T10:58:58;25.13;;;14.57;;
46322;SDS011;32044;52.386;13.278;2024-02-28T11:01:28;28.75;;;16.58;;
46322;SDS011;32044;52.386;13.278;2024-02-28T11:03:55;27.65;;;16.27;;
46322;SDS011;32044;52.386;13.278;2024-02-28T11:06:23;25.38;;;14.57;;
46322;SDS011;32044;52.386;13.278;2024-02-28T11:08:51;30.00;;;15.73;;
46322;SDS011;32044;52.386;13.278;2024-02-28T11:11:20;28.98;;;16.48;;
46322;SDS011;32044;52.386;13.278;2024-02-28T11:13:51;27.00;;;15.48;;
46322;SDS011;32044;52.386;13.278;2024-02-28T11:16:25;25.63;;;15.50;;
46322;SDS011;32044;52.386;13.278;2024-02-28T11:18:55;24.50;;;14.98;;
46322;SDS011;32044;52.386;13.278;2024-02-28T11:21:23;27.83;;;15.93;;
46322;SDS011;32044;52.386;13.278;2024-02-28T11:23:52;27.52;;;16.25;;
46322;SDS011;32044;52.386;13.278;2024-02-28T11:26:20;23.45;;;14.55;;
46322;SDS011;32044;52.386;13.278;2024-02-28T11:28:48;26.13;;;14.25;;
46322;SDS011;32044;52.386;13.278;2024-02-28T11:31:15;28.23;;;15.40;;
46322;SDS011;32044;52.386;13.278;2024-02-28T11:33:46;26.05;;;14.90;;
46322;SDS011;32044;52.386;13.278;2024-02-28T11:36:14;26.88;;;15.40;;
46322;SDS011;32044;52.386;13.278;2024-02-28T11:38:41;26.65;;;14.68;;
46322;SDS011;32044;52.386;13.278;2024-02-28T11:41:09;23.90;;;14.35;;
46322;SDS011;32044;52.386;13.278;2024-02-28T11:43:37;27.98;;;15.25;;
46322;SDS011;32044;52.386;13.278;2024-02-28T11:46:17;25.73;;;14.68;;
46322;SDS011;32044;52.386;13.278;2024-02-28T11:48:46;25.55;;;15.25;;
46322;SDS011;32044;52.386;13.278;2024-02-28T11:51:14;24.70;;;14.95;;
46322;SDS011;32044;52.386;13.278;2024-02-28T11:53:41;23.48;;;14.10;;
46322;SDS011;32044;52.386;13.278;2024-02-28T11:56:09;24.17;;;13.98;;
46322;SDS011;32044;52.386;13.278;2024-02-28T11:58:37;21.42;;;12.65;;
46322;SDS011;32044;52.386;13.278;2024-02-28T12:01:04;24.00;;;14.00;;
46322;SDS011;32044;52.386;13.278;2024-02-28T12:03:32;22.58;;;14.07;;
46322;SDS011;32044;52.386;13.278;2024-02-28T12:06:01;20.20;;;11.73;;
46322;SDS011;32044;52.386;13.278;2024-02-28T12:08:28;20.83;;;13.30;;
46322;SDS011;32044;52.386;13.278;2024-02-28T12:11:05;20.90;;;12.85;;
46322;SDS011;32044;52.386;13.278;2024-02-28T12:13:33;23.67;;;13.52;;
46322;SDS011;32044;52.386;13.278;2024-02-28T12:16:01;23.33;;;13.68;;
46322;SDS011;32044;52.386;13.278;2024-02-28T12:18:29;23.30;;;12.40;;
46322;SDS011;32044;52.386;13.278;2024-02-28T12:20:56;23.73;;;12.88;;
46322;SDS011;32044;52.386;13.278;2024-02-28T12:23:25;19.65;;;11.68;;
46322;SDS011;32044;52.386;13.278;2024-02-28T12:25:53;23.50;;;13.23;;
46322;SDS011;32044;52.386;13.278;2024-02-28T12:28:20;18.45;;;11.63;;
46322;SDS011;32044;52.386;13.278;2024-02-28T12:30:48;22.33;;;13.00;;
46322;SDS011;32044;52.386;13.278;2024-02-28T12:33:15;21.88;;;13.13;;
46322;SDS011;32044;52.386;13.278;2024-02-28T12:35:43;21.52;;;12.70;;
46322;SDS011;32044;52.386;13.278;2024-02-28T12:38:10;20.58;;;12.20;;
46322;SDS011;32044;52.386;13.278;2024-02-28T12:40:39;17.58;;;12.00;;
46322;SDS011;32044;52.386;13.278;2024-02-28T12:43:08;21.88;;;13.00;;
46322;SDS011;32044;52.386;13.278;2024-02-28T12:45:36;21.02;;;13.13;;
46322;SDS011;32044;52.386;13.278;2024-02-28T12:48:03;21.83;;;12.73;;
46322;SDS011;32044;52.386;13.278;2024-02-28T12:50:32;19.73;;;11.55;;
46322;SDS011;32044;52.386;13.278;2024-02-28T12:53:01;21.35;;;12.50;;
46322;SDS011;32044;52.386;13.278;2024-02-28T12:55:29;23.30;;;13.20;;
46322;SDS011;32044;52.386;13.278;2024-02-28T12:57:58;21.65;;;13.15;;
46322;SDS011;32044;52.386;13.278;2024-02-28T13:00:26;23.52;;;13.90;;
46322;SDS011;32044;52.386;13.278;2024-02-28T13:02:54;24.50;;;13.60;;
46322;SDS011;32044;52.386;13.278;2024-02-28T13:05:21;20.10;;;12.10;;
46322;SDS011;32044;52.386;13.278;2024-02-28T13:07:49;22.30;;;12.48;;
46322;SDS011;32044;52.386;13.278;2024-02-28T13:10:16;19.50;;;11.95;;
46322;SDS011;32044;52.386;13.278;2024-02-28T13:12:44;21.33;;;12.32;;
46322;SDS011;32044;52.386;13.278;2024-02-28T13:15:13;20.55;;;13.45;;
46322;SDS011;32044;52.386;13.278;2024-02-28T13:17:41;24.02;;;14.38;;
46322;SDS011;32044;52.386;13.278;2024-02-28T13:20:09;18.15;;;11.13;;
46322;SDS011;32044;52.386;13.278;2024-02-28T13:22:37;19.90;;;11.88;;
46322;SDS011;32044;52.386;13.278;2024-02-28T13:25:05;20.25;;;12.02;;
46322;SDS011;32044;52.386;13.278;2024-02-28T13:27:33;23.00;;;12.32;;
46322;SDS011;32044;52.386;13.278;2024-02-28T13:30:00;20.42;;;11.35;;
46322;SDS011;32044;52.386;13.278;2024-02-28T13:32:29;20.45;;;11.65;;
46322;SDS011;32044;52.386;13.278;2024-02-28T13:34:57;18.90;;;12.02;;
46322;SDS011;32044;52.386;13.278;2024-02-28T13:37:26;19.63;;;11.88;;
46322;SDS011;32044;52.386;13.278;2024-02-28T13:39:53;20.77;;;12.90;;
46322;SDS011;32044;52.386;13.278;2024-02-28T13:42:21;19.83;;;11.43;;
46322;SDS011;32044;52.386;13.278;2024-02-28T13:44:51;21.58;;;11.98;;
46322;SDS011;32044;52.386;13.278;2024-02-28T13:47:18;20.45;;;12.32;;
46322;SDS011;32044;52.386;13.278;2024-02-28T13:49:47;19.25;;;11.90;;
46322;SDS011;32044;52.386;13.278;2024-02-28T13:52:16;20.35;;;12.25;;
46322;SDS011;32044;52.386;13.278;2024-02-28T13:54:43;23.88;;;13.10;;
46322;SDS011;32044;52.386;13.278;2024-02-28T13:57:11;20.73;;;12.30;;
46322;SDS011;32044;52.386;13.278;2024-02-28T13:59:39;19.33;;;12.00;;
46322;SDS011;32044;52.386;13.278;2024-02-28T14:02:06;20.45;;;12.20;;
46322;SDS011;32044;52.386;13.278;2024-02-28T14:04:35;21.67;;;12.73;;
46322;SDS011;32044;52.386;13.278;2024-02-28T14:07:05;19.25;;;11.35;;
46322;SDS011;32044;52.386;13.278;2024-02-28T14:09:33;20.35;;;12.32;;
46322;SDS011;32044;52.386;13.278;2024-02-28T14:12:00;20.67;;;12.18;;